sensor_id;sensor_type;location;lat;lon;timestamp;temperature;humidity
12384;DHT22;6256;63.808;20.336;2022-12-29T00:01:35;-13.20;99.90
12384;DHT22;6256;63.808;20.336;2022-12-29T00:04:01;-13.20;99.90
12384;DHT22;6256;63.808;20.336;2022-12-29T00:06:28;-13.20;99.90
12384;DHT22;6256;63.808;20.336;2022-12-29T00:08:53;-13.20;99.90
12384;DHT22;6256;63.808;20.336;2022-12-29T00:11:26;-13.30;99.90
12384;DHT22;6256;63.808;20.336;2022-12-29T00:13:52;-13.30;99.90
12384;DHT22;6256;63.808;20.336;2022-12-29T00:16:38;-13.30;99.90
12384;DHT22;6256;63.808;20.336;2022-12-29T00:19:04;-13.30;99.90
12384;DHT22;6256;63.808;20.336;2022-12-29T00:21:31;-13.30;99.90
12384;DHT22;6256;63.808;20.336;2022-12-29T00:24:20;-13.40;99.90
12384;DHT22;6256;63.808;20.336;2022-12-29T00:26:59;-13.40;99.90
12384;DHT22;6256;63.808;20.336;2022-12-29T00:29:51;-13.50;99.90
12384;DHT22;6256;63.808;20.336;2022-12-29T00:32:36;-13.50;99.90
12384;DHT22;6256;63.808;20.336;2022-12-29T00:35:35;-13.50;99.90
12384;DHT22;6256;63.808;20.336;2022-12-29T00:38:05;-13.60;99.90
12384;DHT22;6256;63.808;20.336;2022-12-29T00:40:51;-13.60;99.90
12384;DHT22;6256;63.808;20.336;2022-12-29T00:43:36;-13.60;99.90
12384;DHT22;6256;63.808;20.336;2022-12-29T00:46:20;-13.60;99.90
12384;DHT22;6256;63.808;20.336;2022-12-29T00:48:46;-13.60;99.90
12384;DHT22;6256;63.808;20.336;2022-12-29T00:51:30;-13.60;99.90
12384;DHT22;6256;63.808;20.336;2022-12-29T00:53:56;-13.60;99.90
12384;DHT22;6256;63.808;20.336;2022-12-29T00:56:21;-13.60;99.90
12384;DHT22;6256;63.808;20.336;2022-12-29T00:58:47;-13.60;99.90
12384;DHT22;6256;63.808;20.336;2022-12-29T01:01:13;-13.60;99.90
12384;DHT22;6256;63.808;20.336;2022-12-29T01:03:39;-13.60;99.90
12384;DHT22;6256;63.808;20.336;2022-12-29T01:06:07;-13.60;99.90
12384;DHT22;6256;63.808;20.336;2022-12-29T01:08:33;-13.60;99.90
12384;DHT22;6256;63.808;20.336;2022-12-29T01:11:17;-13.70;99.90
12384;DHT22;6256;63.808;20.336;2022-12-29T01:13:43;-13.70;99.90
12384;DHT22;6256;63.808;20.336;2022-12-29T01:16:09;-13.80;99.90
12384;DHT22;6256;63.808;20.336;2022-12-29T01:18:34;-13.80;99.90
12384;DHT22;6256;63.808;20.336;2022-12-29T01:21:02;-13.80;99.90
12384;DHT22;6256;63.808;20.336;2022-12-29T01:23:29;-13.80;99.90
12384;DHT22;6256;63.808;20.336;2022-12-29T01:25:55;-13.90;99.90
12384;DHT22;6256;63.808;20.336;2022-12-29T01:28:20;-13.90;99.90
12384;DHT22;6256;63.808;20.336;2022-12-29T01:30:46;-13.90;99.90
12384;DHT22;6256;63.808;20.336;2022-12-29T01:33:12;-13.90;99.90
12384;DHT22;6256;63.808;20.336;2022-12-29T01:35:38;-13.90;99.90
12384;DHT22;6256;63.808;20.336;2022-12-29T01:38:03;-14.00;99.90
12384;DHT22;6256;63.808;20.336;2022-12-29T01:40:29;-13.90;99.90
12384;DHT22;6256;63.808;20.336;2022-12-29T01:42:55;-14.00;99.90
12384;DHT22;6256;63.808;20.336;2022-12-29T01:45:21;-14.00;99.90
12384;DHT22;6256;63.808;20.336;2022-12-29T01:47:54;-14.00;99.90
12384;DHT22;6256;63.808;20.336;2022-12-29T01:50:40;-14.00;99.90
12384;DHT22;6256;63.808;20.336;2022-12-29T01:53:17;-14.00;99.90
12384;DHT22;6256;63.808;20.336;2022-12-29T01:55:50;-14.10;99.90
12384;DHT22;6256;63.808;20.336;2022-12-29T01:58:17;-14.10;99.90
12384;DHT22;6256;63.808;20.336;2022-12-29T02:00:45;-14.10;99.90
12384;DHT22;6256;63.808;20.336;2022-12-29T02:03:11;-14.10;99.90
12384;DHT22;6256;63.808;20.336;2022-12-29T02:06:00;-14.20;99.90
12384;DHT22;6256;63.808;20.336;2022-12-29T02:08:29;-14.20;99.90
12384;DHT22;6256;63.808;20.336;2022-12-29T02:10:56;-14.20;99.90
12384;DHT22;6256;63.808;20.336;2022-12-29T02:13:27;-14.20;99.90
12384;DHT22;6256;63.808;20.336;2022-12-29T02:30:14;-14.30;99.90
12384;DHT22;6256;63.808;20.336;2022-12-29T02:36:05;-14.30;99.90
12384;DHT22;6256;63.808;20.336;2022-12-29T02:44:27;-14.30;99.90
12384;DHT22;6256;63.808;20.336;2022-12-29T02:50:36;-14.30;99.90
12384;DHT22;6256;63.808;20.336;2022-12-29T02:53:06;-14.40;99.90
12384;DHT22;6256;63.808;20.336;2022-12-29T02:55:33;-14.40;99.90
12384;DHT22;6256;63.808;20.336;2022-12-29T02:58:20;-14.40;99.90
12384;DHT22;6256;63.808;20.336;2022-12-29T03:09:41;-14.40;99.90
12384;DHT22;6256;63.808;20.336;2022-12-29T03:15:23;-14.50;99.90
12384;DHT22;6256;63.808;20.336;2022-12-29T03:18:19;-14.50;99.90
12384;DHT22;6256;63.808;20.336;2022-12-29T03:20:57;-14.50;99.90
12384;DHT22;6256;63.808;20.336;2022-12-29T03:23:27;-14.60;99.90
12384;DHT22;6256;63.808;20.336;2022-12-29T03:25:56;-14.60;99.90
12384;DHT22;6256;63.808;20.336;2022-12-29T03:28:29;-14.60;99.90
12384;DHT22;6256;63.808;20.336;2022-12-29T03:30:58;-14.60;99.90
12384;DHT22;6256;63.808;20.336;2022-12-29T03:33:27;-14.60;99.90
12384;DHT22;6256;63.808;20.336;2022-12-29T03:36:00;-14.60;99.90
12384;DHT22;6256;63.808;20.336;2022-12-29T03:38:49;-14.70;99.90
12384;DHT22;6256;63.808;20.336;2022-12-29T03:41:20;-14.70;99.90
12384;DHT22;6256;63.808;20.336;2022-12-29T03:43:47;-14.70;99.90
12384;DHT22;6256;63.808;20.336;2022-12-29T03:46:13;-14.70;99.90
12384;DHT22;6256;63.808;20.336;2022-12-29T03:48:39;-14.70;99.90
12384;DHT22;6256;63.808;20.336;2022-12-29T03:51:04;-14.70;99.90
12384;DHT22;6256;63.808;20.336;2022-12-29T03:53:30;-14.60;99.90
12384;DHT22;6256;63.808;20.336;2022-12-29T03:55:56;-14.50;99.90
12384;DHT22;6256;63.808;20.336;2022-12-29T03:58:22;-14.50;99.90
12384;DHT22;6256;63.808;20.336;2022-12-29T04:00:47;-14.30;99.90
12384;DHT22;6256;63.808;20.336;2022-12-29T04:03:13;-14.20;99.90
12384;DHT22;6256;63.808;20.336;2022-12-29T04:05:39;-14.10;99.90
12384;DHT22;6256;63.808;20.336;2022-12-29T04:08:05;-14.00;99.90
12384;DHT22;6256;63.808;20.336;2022-12-29T04:10:30;-13.90;99.90
12384;DHT22;6256;63.808;20.336;2022-12-29T04:12:56;-13.80;99.90
12384;DHT22;6256;63.808;20.336;2022-12-29T04:15:22;-13.70;99.90
12384;DHT22;6256;63.808;20.336;2022-12-29T04:17:49;-13.50;99.90
12384;DHT22;6256;63.808;20.336;2022-12-29T04:20:18;-13.40;99.90
12384;DHT22;6256;63.808;20.336;2022-12-29T04:23:04;-13.30;99.90
12384;DHT22;6256;63.808;20.336;2022-12-29T04:25:31;-13.10;99.90
12384;DHT22;6256;63.808;20.336;2022-12-29T04:27:57;-12.90;99.90
12384;DHT22;6256;63.808;20.336;2022-12-29T04:30:23;-12.70;99.90
12384;DHT22;6256;63.808;20.336;2022-12-29T04:32:48;-12.50;99.90
12384;DHT22;6256;63.808;20.336;2022-12-29T04:35:14;-12.40;99.90
12384;DHT22;6256;63.808;20.336;2022-12-29T04:37:40;-12.20;99.90
12384;DHT22;6256;63.808;20.336;2022-12-29T04:40:06;-12.10;99.90
12384;DHT22;6256;63.808;20.336;2022-12-29T04:42:32;-12.00;99.90
12384;DHT22;6256;63.808;20.336;2022-12-29T04:44:58;-11.90;99.90
12384;DHT22;6256;63.808;20.336;2022-12-29T04:47:23;-11.80;99.90
12384;DHT22;6256;63.808;20.336;2022-12-29T04:49:49;-11.70;99.90
12384;DHT22;6256;63.808;20.336;2022-12-29T04:52:15;-11.60;99.90
12384;DHT22;6256;63.808;20.336;2022-12-29T04:54:43;-11.50;99.90
12384;DHT22;6256;63.808;20.336;2022-12-29T04:57:08;-11.40;99.90
12384;DHT22;6256;63.808;20.336;2022-12-29T04:59:34;-11.30;99.90
12384;DHT22;6256;63.808;20.336;2022-12-29T05:02:00;-11.20;99.90
12384;DHT22;6256;63.808;20.336;2022-12-29T05:04:25;-11.10;99.90
12384;DHT22;6256;63.808;20.336;2022-12-29T05:06:51;-11.10;99.90
12384;DHT22;6256;63.808;20.336;2022-12-29T05:09:17;-11.00;99.90
12384;DHT22;6256;63.808;20.336;2022-12-29T05:11:42;-11.00;99.90
12384;DHT22;6256;63.808;20.336;2022-12-29T05:14:08;-10.90;99.90
12384;DHT22;6256;63.808;20.336;2022-12-29T05:16:34;-10.80;99.90
12384;DHT22;6256;63.808;20.336;2022-12-29T05:19:00;-10.70;99.90
12384;DHT22;6256;63.808;20.336;2022-12-29T05:21:25;-10.70;99.90
12384;DHT22;6256;63.808;20.336;2022-12-29T05:23:51;-10.60;99.90
12384;DHT22;6256;63.808;20.336;2022-12-29T05:26:16;-10.60;99.90
12384;DHT22;6256;63.808;20.336;2022-12-29T05:28:42;-10.50;99.90
12384;DHT22;6256;63.808;20.336;2022-12-29T05:31:08;-10.50;99.90
12384;DHT22;6256;63.808;20.336;2022-12-29T05:33:33;-10.40;99.90
12384;DHT22;6256;63.808;20.336;2022-12-29T05:36:07;-10.40;99.90
12384;DHT22;6256;63.808;20.336;2022-12-29T05:38:34;-10.30;99.90
12384;DHT22;6256;63.808;20.336;2022-12-29T05:40:59;-10.30;99.90
12384;DHT22;6256;63.808;20.336;2022-12-29T05:43:25;-10.20;99.90
12384;DHT22;6256;63.808;20.336;2022-12-29T05:45:52;-10.10;99.90
12384;DHT22;6256;63.808;20.336;2022-12-29T05:48:18;-10.00;99.90
12384;DHT22;6256;63.808;20.336;2022-12-29T05:50:50;-10.00;99.90
12384;DHT22;6256;63.808;20.336;2022-12-29T05:53:16;-9.90;99.90
12384;DHT22;6256;63.808;20.336;2022-12-29T05:55:43;-9.90;99.90
12384;DHT22;6256;63.808;20.336;2022-12-29T05:58:09;-9.90;99.90
12384;DHT22;6256;63.808;20.336;2022-12-29T06:00:35;-9.90;99.90
12384;DHT22;6256;63.808;20.336;2022-12-29T06:03:01;-9.80;99.90
12384;DHT22;6256;63.808;20.336;2022-12-29T06:05:26;-9.80;99.90
12384;DHT22;6256;63.808;20.336;2022-12-29T06:07:52;-9.80;99.90
12384;DHT22;6256;63.808;20.336;2022-12-29T06:10:18;-9.70;99.90
12384;DHT22;6256;63.808;20.336;2022-12-29T06:12:43;-9.70;99.90
12384;DHT22;6256;63.808;20.336;2022-12-29T06:15:10;-9.70;99.90
12384;DHT22;6256;63.808;20.336;2022-12-29T06:17:36;-9.60;99.90
12384;DHT22;6256;63.808;20.336;2022-12-29T06:20:02;-9.50;99.90
12384;DHT22;6256;63.808;20.336;2022-12-29T06:22:28;-9.50;99.90
12384;DHT22;6256;63.808;20.336;2022-12-29T06:24:54;-9.40;99.90
12384;DHT22;6256;63.808;20.336;2022-12-29T06:27:19;-9.40;99.90
12384;DHT22;6256;63.808;20.336;2022-12-29T06:29:46;-9.30;99.90
12384;DHT22;6256;63.808;20.336;2022-12-29T06:32:11;-9.20;99.90
12384;DHT22;6256;63.808;20.336;2022-12-29T06:34:37;-9.20;99.90
12384;DHT22;6256;63.808;20.336;2022-12-29T06:37:03;-9.10;99.90
12384;DHT22;6256;63.808;20.336;2022-12-29T06:39:29;-9.10;99.90
12384;DHT22;6256;63.808;20.336;2022-12-29T06:41:54;-9.00;99.90
12384;DHT22;6256;63.808;20.336;2022-12-29T06:44:21;-8.90;99.90
12384;DHT22;6256;63.808;20.336;2022-12-29T06:46:47;-8.90;99.90
12384;DHT22;6256;63.808;20.336;2022-12-29T06:49:13;-8.80;99.90
12384;DHT22;6256;63.808;20.336;2022-12-29T06:51:38;-8.70;99.90
12384;DHT22;6256;63.808;20.336;2022-12-29T06:54:04;-8.60;99.90
12384;DHT22;6256;63.808;20.336;2022-12-29T06:56:30;-8.50;99.90
12384;DHT22;6256;63.808;20.336;2022-12-29T06:58:55;-8.40;99.90
12384;DHT22;6256;63.808;20.336;2022-12-29T07:01:21;-8.40;99.90
12384;DHT22;6256;63.808;20.336;2022-12-29T07:03:47;-8.30;99.90
12384;DHT22;6256;63.808;20.336;2022-12-29T07:06:12;-8.30;99.90
12384;DHT22;6256;63.808;20.336;2022-12-29T07:08:38;-8.20;99.90
12384;DHT22;6256;63.808;20.336;2022-12-29T07:11:04;-8.20;99.90
12384;DHT22;6256;63.808;20.336;2022-12-29T07:13:30;-8.10;99.90
12384;DHT22;6256;63.808;20.336;2022-12-29T07:15:56;-8.00;99.90
12384;DHT22;6256;63.808;20.336;2022-12-29T07:18:21;-8.00;99.90
12384;DHT22;6256;63.808;20.336;2022-12-29T07:20:47;-7.90;99.90
12384;DHT22;6256;63.808;20.336;2022-12-29T07:23:13;-7.80;99.90
12384;DHT22;6256;63.808;20.336;2022-12-29T07:25:39;-7.70;99.90
12384;DHT22;6256;63.808;20.336;2022-12-29T07:28:06;-7.60;99.90
12384;DHT22;6256;63.808;20.336;2022-12-29T07:30:32;-7.60;99.90
12384;DHT22;6256;63.808;20.336;2022-12-29T07:32:58;-7.50;99.90
12384;DHT22;6256;63.808;20.336;2022-12-29T07:35:24;-7.50;99.90
12384;DHT22;6256;63.808;20.336;2022-12-29T07:37:49;-7.40;99.90
12384;DHT22;6256;63.808;20.336;2022-12-29T07:40:15;-7.30;99.90
12384;DHT22;6256;63.808;20.336;2022-12-29T07:42:41;-7.30;99.90
12384;DHT22;6256;63.808;20.336;2022-12-29T07:45:08;-7.20;99.90
12384;DHT22;6256;63.808;20.336;2022-12-29T07:47:34;-7.20;99.90
12384;DHT22;6256;63.808;20.336;2022-12-29T07:50:00;-7.10;99.90
12384;DHT22;6256;63.808;20.336;2022-12-29T07:52:26;-7.00;99.90
12384;DHT22;6256;63.808;20.336;2022-12-29T07:54:51;-7.00;99.90
12384;DHT22;6256;63.808;20.336;2022-12-29T07:57:17;-6.90;99.90
12384;DHT22;6256;63.808;20.336;2022-12-29T07:59:43;-6.90;99.90
12384;DHT22;6256;63.808;20.336;2022-12-29T08:02:11;-6.80;99.90
12384;DHT22;6256;63.808;20.336;2022-12-29T08:04:37;-6.80;99.90
12384;DHT22;6256;63.808;20.336;2022-12-29T08:07:03;-6.70;99.90
12384;DHT22;6256;63.808;20.336;2022-12-29T08:09:28;-6.60;99.90
12384;DHT22;6256;63.808;20.336;2022-12-29T08:11:54;-6.50;99.90
12384;DHT22;6256;63.808;20.336;2022-12-29T08:14:20;-6.50;99.90
12384;DHT22;6256;63.808;20.336;2022-12-29T08:16:46;-6.40;99.90
12384;DHT22;6256;63.808;20.336;2022-12-29T08:19:12;-6.40;99.90
12384;DHT22;6256;63.808;20.336;2022-12-29T08:21:38;-6.40;99.90
12384;DHT22;6256;63.808;20.336;2022-12-29T08:24:04;-6.40;99.90
12384;DHT22;6256;63.808;20.336;2022-12-29T08:26:31;-6.30;99.90
12384;DHT22;6256;63.808;20.336;2022-12-29T08:28:56;-6.30;99.90
12384;DHT22;6256;63.808;20.336;2022-12-29T08:31:23;-6.30;99.90
12384;DHT22;6256;63.808;20.336;2022-12-29T08:33:49;-6.30;99.90
12384;DHT22;6256;63.808;20.336;2022-12-29T08:36:17;-6.20;99.90
12384;DHT22;6256;63.808;20.336;2022-12-29T08:38:43;-6.20;99.90
12384;DHT22;6256;63.808;20.336;2022-12-29T08:41:09;-6.00;99.90
12384;DHT22;6256;63.808;20.336;2022-12-29T08:43:34;-6.00;99.90
12384;DHT22;6256;63.808;20.336;2022-12-29T08:46:00;-6.00;99.90
12384;DHT22;6256;63.808;20.336;2022-12-29T08:48:26;-5.90;99.90
12384;DHT22;6256;63.808;20.336;2022-12-29T08:50:52;-5.80;99.90
12384;DHT22;6256;63.808;20.336;2022-12-29T08:53:18;-5.70;99.90
12384;DHT22;6256;63.808;20.336;2022-12-29T08:55:57;-5.50;99.90
12384;DHT22;6256;63.808;20.336;2022-12-29T08:58:24;-5.40;99.90
12384;DHT22;6256;63.808;20.336;2022-12-29T09:00:53;-5.30;99.90
12384;DHT22;6256;63.808;20.336;2022-12-29T09:03:19;-5.30;99.90
12384;DHT22;6256;63.808;20.336;2022-12-29T09:05:48;-5.20;99.90
12384;DHT22;6256;63.808;20.336;2022-12-29T09:08:14;-5.10;99.90
12384;DHT22;6256;63.808;20.336;2022-12-29T09:10:40;-5.10;99.90
12384;DHT22;6256;63.808;20.336;2022-12-29T09:13:06;-5.10;99.90
12384;DHT22;6256;63.808;20.336;2022-12-29T09:15:31;-5.00;99.90
12384;DHT22;6256;63.808;20.336;2022-12-29T09:17:57;-5.00;99.90
12384;DHT22;6256;63.808;20.336;2022-12-29T09:20:23;-5.00;99.90
12384;DHT22;6256;63.808;20.336;2022-12-29T09:22:48;-5.00;99.90
12384;DHT22;6256;63.808;20.336;2022-12-29T09:25:14;-5.00;99.90
12384;DHT22;6256;63.808;20.336;2022-12-29T09:27:41;-4.90;99.90
12384;DHT22;6256;63.808;20.336;2022-12-29T09:30:09;-4.80;99.90
12384;DHT22;6256;63.808;20.336;2022-12-29T09:32:35;-4.80;99.90
12384;DHT22;6256;63.808;20.336;2022-12-29T09:35:01;-4.70;99.90
12384;DHT22;6256;63.808;20.336;2022-12-29T09:37:27;-4.70;99.90
12384;DHT22;6256;63.808;20.336;2022-12-29T09:39:53;-4.60;99.90
12384;DHT22;6256;63.808;20.336;2022-12-29T09:45:10;-4.60;99.90
12384;DHT22;6256;63.808;20.336;2022-12-29T09:47:36;-4.50;99.90
12384;DHT22;6256;63.808;20.336;2022-12-29T09:50:08;-4.50;99.90
12384;DHT22;6256;63.808;20.336;2022-12-29T09:52:41;-4.40;99.90
12384;DHT22;6256;63.808;20.336;2022-12-29T09:55:17;-4.40;99.90
12384;DHT22;6256;63.808;20.336;2022-12-29T09:57:59;-4.40;99.90
12384;DHT22;6256;63.808;20.336;2022-12-29T10:03:20;-4.40;99.90
12384;DHT22;6256;63.808;20.336;2022-12-29T10:08:59;-4.30;99.90
12384;DHT22;6256;63.808;20.336;2022-12-29T10:11:45;-4.30;99.90
12384;DHT22;6256;63.808;20.336;2022-12-29T10:17:38;-4.30;99.90
12384;DHT22;6256;63.808;20.336;2022-12-29T10:25:30;-4.20;99.90
12384;DHT22;6256;63.808;20.336;2022-12-29T10:28:00;-4.10;99.90
12384;DHT22;6256;63.808;20.336;2022-12-29T10:30:28;-4.10;99.90
12384;DHT22;6256;63.808;20.336;2022-12-29T10:33:06;-4.10;99.90
12384;DHT22;6256;63.808;20.336;2022-12-29T10:35:38;-4.10;99.90
12384;DHT22;6256;63.808;20.336;2022-12-29T10:38:58;-4.00;99.90
12384;DHT22;6256;63.808;20.336;2022-12-29T10:41:30;-4.00;99.90
12384;DHT22;6256;63.808;20.336;2022-12-29T10:43:58;-3.90;99.90
12384;DHT22;6256;63.808;20.336;2022-12-29T10:46:28;-3.90;99.90
12384;DHT22;6256;63.808;20.336;2022-12-29T10:48:54;-3.80;99.90
12384;DHT22;6256;63.808;20.336;2022-12-29T10:51:38;-3.80;99.90
12384;DHT22;6256;63.808;20.336;2022-12-29T10:54:18;-3.70;99.90
12384;DHT22;6256;63.808;20.336;2022-12-29T10:57:07;-3.70;99.90
12384;DHT22;6256;63.808;20.336;2022-12-29T10:59:35;-3.60;99.90
12384;DHT22;6256;63.808;20.336;2022-12-29T11:07:24;-3.40;99.90
12384;DHT22;6256;63.808;20.336;2022-12-29T11:09:51;-3.40;99.90
12384;DHT22;6256;63.808;20.336;2022-12-29T11:12:27;-3.30;99.90
12384;DHT22;6256;63.808;20.336;2022-12-29T11:17:43;-3.20;99.90
12384;DHT22;6256;63.808;20.336;2022-12-29T11:20:38;-3.20;99.90
12384;DHT22;6256;63.808;20.336;2022-12-29T11:23:24;-3.10;99.90
12384;DHT22;6256;63.808;20.336;2022-12-29T11:26:07;-3.00;99.90
12384;DHT22;6256;63.808;20.336;2022-12-29T11:28:37;-3.00;99.90
12384;DHT22;6256;63.808;20.336;2022-12-29T11:31:05;-2.80;99.90
12384;DHT22;6256;63.808;20.336;2022-12-29T11:33:32;-2.80;99.90
12384;DHT22;6256;63.808;20.336;2022-12-29T11:39:02;-2.80;99.90
12384;DHT22;6256;63.808;20.336;2022-12-29T11:41:29;-2.70;99.90
12384;DHT22;6256;63.808;20.336;2022-12-29T11:43:59;-2.60;99.90
12384;DHT22;6256;63.808;20.336;2022-12-29T11:46:32;-2.60;99.90
12384;DHT22;6256;63.808;20.336;2022-12-29T11:48:59;-2.50;99.90
12384;DHT22;6256;63.808;20.336;2022-12-29T11:51:46;-2.50;99.90
12384;DHT22;6256;63.808;20.336;2022-12-29T11:54:25;-2.50;99.90
12384;DHT22;6256;63.808;20.336;2022-12-29T11:56:53;-2.50;99.90
12384;DHT22;6256;63.808;20.336;2022-12-29T12:04:51;-2.30;99.90
12384;DHT22;6256;63.808;20.336;2022-12-29T12:07:23;-2.20;99.90
12384;DHT22;6256;63.808;20.336;2022-12-29T12:10:01;-2.20;99.90
12384;DHT22;6256;63.808;20.336;2022-12-29T12:12:35;-2.30;99.90
12384;DHT22;6256;63.808;20.336;2022-12-29T12:15:03;-2.20;99.90
12384;DHT22;6256;63.808;20.336;2022-12-29T12:17:40;-2.10;99.90
12384;DHT22;6256;63.808;20.336;2022-12-29T12:20:26;-2.10;99.90
12384;DHT22;6256;63.808;20.336;2022-12-29T12:23:02;-2.10;99.90
12384;DHT22;6256;63.808;20.336;2022-12-29T12:25:45;-2.10;99.90
12384;DHT22;6256;63.808;20.336;2022-12-29T12:31:39;-2.00;99.90
12384;DHT22;6256;63.808;20.336;2022-12-29T12:34:03;-2.00;99.90
12384;DHT22;6256;63.808;20.336;2022-12-29T12:39:17;-2.00;99.90
12384;DHT22;6256;63.808;20.336;2022-12-29T13:01:18;-1.90;99.90
12384;DHT22;6256;63.808;20.336;2022-12-29T13:06:56;-1.90;99.90
12384;DHT22;6256;63.808;20.336;2022-12-29T13:26:33;-1.70;99.90
12384;DHT22;6256;63.808;20.336;2022-12-29T13:36:50;-1.70;99.90
12384;DHT22;6256;63.808;20.336;2022-12-29T13:39:48;-1.70;99.90
12384;DHT22;6256;63.808;20.336;2022-12-29T13:42:17;-1.70;99.90
12384;DHT22;6256;63.808;20.336;2022-12-29T13:44:48;-1.70;99.90
12384;DHT22;6256;63.808;20.336;2022-12-29T13:47:34;-1.60;99.90
12384;DHT22;6256;63.808;20.336;2022-12-29T13:50:04;-1.60;99.90
12384;DHT22;6256;63.808;20.336;2022-12-29T13:55:37;-1.50;99.90
12384;DHT22;6256;63.808;20.336;2022-12-29T14:00:54;-1.40;99.90
12384;DHT22;6256;63.808;20.336;2022-12-29T14:09:01;-1.50;99.90
12384;DHT22;6256;63.808;20.336;2022-12-29T14:11:33;-1.40;99.90
12384;DHT22;6256;63.808;20.336;2022-12-29T14:14:16;-1.40;99.90
12384;DHT22;6256;63.808;20.336;2022-12-29T14:16:44;-1.40;99.90
12384;DHT22;6256;63.808;20.336;2022-12-29T14:19:41;-1.40;99.90
12384;DHT22;6256;63.808;20.336;2022-12-29T14:22:07;-1.40;99.90
12384;DHT22;6256;63.808;20.336;2022-12-29T14:34:51;-1.30;99.90
12384;DHT22;6256;63.808;20.336;2022-12-29T14:37:34;-1.30;99.90
12384;DHT22;6256;63.808;20.336;2022-12-29T14:42:38;-1.20;99.90
12384;DHT22;6256;63.808;20.336;2022-12-29T14:45:28;-1.20;99.90
12384;DHT22;6256;63.808;20.336;2022-12-29T14:47:55;-1.20;99.90
12384;DHT22;6256;63.808;20.336;2022-12-29T14:50:39;-1.20;99.90
12384;DHT22;6256;63.808;20.336;2022-12-29T14:53:10;-1.20;99.90
12384;DHT22;6256;63.808;20.336;2022-12-29T14:55:57;-1.10;99.90
12384;DHT22;6256;63.808;20.336;2022-12-29T14:58:32;-1.20;99.90
12384;DHT22;6256;63.808;20.336;2022-12-29T15:01:01;-1.10;99.90
12384;DHT22;6256;63.808;20.336;2022-12-29T15:03:42;-1.10;99.90
12384;DHT22;6256;63.808;20.336;2022-12-29T15:06:11;-1.10;99.90
12384;DHT22;6256;63.808;20.336;2022-12-29T15:08:44;-1.00;99.90
12384;DHT22;6256;63.808;20.336;2022-12-29T15:13:48;-1.00;99.90
12384;DHT22;6256;63.808;20.336;2022-12-29T15:16:33;-1.00;99.90
12384;DHT22;6256;63.808;20.336;2022-12-29T15:19:01;-1.00;99.90
12384;DHT22;6256;63.808;20.336;2022-12-29T15:21:36;-0.90;99.90
12384;DHT22;6256;63.808;20.336;2022-12-29T15:24:02;-0.90;99.90
12384;DHT22;6256;63.808;20.336;2022-12-29T15:26:44;-0.90;99.90
12384;DHT22;6256;63.808;20.336;2022-12-29T15:32:20;-0.90;99.90
12384;DHT22;6256;63.808;20.336;2022-12-29T15:34:48;-0.90;99.90
12384;DHT22;6256;63.808;20.336;2022-12-29T15:37:18;-0.90;99.90
12384;DHT22;6256;63.808;20.336;2022-12-29T15:39:44;-1.00;99.90
12384;DHT22;6256;63.808;20.336;2022-12-29T15:44:54;-0.90;99.90
12384;DHT22;6256;63.808;20.336;2022-12-29T15:47:25;-0.90;99.90
12384;DHT22;6256;63.808;20.336;2022-12-29T15:50:08;-0.90;99.90
12384;DHT22;6256;63.808;20.336;2022-12-29T15:52:39;-0.90;99.90
12384;DHT22;6256;63.808;20.336;2022-12-29T15:55:05;-0.90;99.90
12384;DHT22;6256;63.808;20.336;2022-12-29T15:57:37;-0.90;99.90
12384;DHT22;6256;63.808;20.336;2022-12-29T16:00:32;-0.90;99.90
12384;DHT22;6256;63.808;20.336;2022-12-29T16:03:00;-0.90;99.90
12384;DHT22;6256;63.808;20.336;2022-12-29T16:05:38;-0.80;99.90
12384;DHT22;6256;63.808;20.336;2022-12-29T16:11:24;-0.80;99.90
12384;DHT22;6256;63.808;20.336;2022-12-29T16:13:52;-0.80;99.90
12384;DHT22;6256;63.808;20.336;2022-12-29T16:16:22;-0.80;99.90
12384;DHT22;6256;63.808;20.336;2022-12-29T16:18:51;-0.80;99.90
12384;DHT22;6256;63.808;20.336;2022-12-29T16:21:33;-0.80;99.90
12384;DHT22;6256;63.808;20.336;2022-12-29T16:24:05;-0.80;99.90
12384;DHT22;6256;63.808;20.336;2022-12-29T16:26:32;-0.70;99.90
12384;DHT22;6256;63.808;20.336;2022-12-29T16:28:59;-0.60;99.90
12384;DHT22;6256;63.808;20.336;2022-12-29T16:31:53;-0.70;99.90
12384;DHT22;6256;63.808;20.336;2022-12-29T16:34:29;-0.70;99.90
12384;DHT22;6256;63.808;20.336;2022-12-29T16:39:49;-0.70;99.90
12384;DHT22;6256;63.808;20.336;2022-12-29T16:46:06;-0.70;99.90
12384;DHT22;6256;63.808;20.336;2022-12-29T16:51:21;-0.70;99.90
12384;DHT22;6256;63.808;20.336;2022-12-29T16:53:51;-0.70;99.90
12384;DHT22;6256;63.808;20.336;2022-12-29T16:56:21;-0.70;99.90
12384;DHT22;6256;63.808;20.336;2022-12-29T16:59:01;-0.70;99.90
12384;DHT22;6256;63.808;20.336;2022-12-29T17:01:28;-0.60;99.90
12384;DHT22;6256;63.808;20.336;2022-12-29T17:03:58;-0.70;99.90
12384;DHT22;6256;63.808;20.336;2022-12-29T17:06:25;-0.70;99.90
12384;DHT22;6256;63.808;20.336;2022-12-29T17:08:51;-0.70;99.90
12384;DHT22;6256;63.808;20.336;2022-12-29T17:11:27;-0.60;99.90
12384;DHT22;6256;63.808;20.336;2022-12-29T17:16:59;-0.60;99.90
12384;DHT22;6256;63.808;20.336;2022-12-29T17:19:36;-0.50;99.90
12384;DHT22;6256;63.808;20.336;2022-12-29T17:22:08;-0.50;99.90
12384;DHT22;6256;63.808;20.336;2022-12-29T17:24:34;-0.60;99.90
12384;DHT22;6256;63.808;20.336;2022-12-29T17:27:01;-0.50;99.90
12384;DHT22;6256;63.808;20.336;2022-12-29T17:29:38;-0.50;99.90
12384;DHT22;6256;63.808;20.336;2022-12-29T17:32:08;-0.50;99.90
12384;DHT22;6256;63.808;20.336;2022-12-29T17:34:36;-0.50;99.90
12384;DHT22;6256;63.808;20.336;2022-12-29T17:37:01;-0.50;99.90
12384;DHT22;6256;63.808;20.336;2022-12-29T17:39:27;-0.50;99.90
12384;DHT22;6256;63.808;20.336;2022-12-29T17:41:53;-0.50;99.90
12384;DHT22;6256;63.808;20.336;2022-12-29T17:44:20;-0.50;99.90
12384;DHT22;6256;63.808;20.336;2022-12-29T17:46:47;-0.60;99.90
12384;DHT22;6256;63.808;20.336;2022-12-29T17:49:15;-0.60;99.90
12384;DHT22;6256;63.808;20.336;2022-12-29T17:51:42;-0.60;99.90
12384;DHT22;6256;63.808;20.336;2022-12-29T17:54:23;-0.60;99.90
12384;DHT22;6256;63.808;20.336;2022-12-29T17:56:50;-0.50;99.90
12384;DHT22;6256;63.808;20.336;2022-12-29T17:59:16;-0.50;99.90
12384;DHT22;6256;63.808;20.336;2022-12-29T18:01:43;-0.50;99.90
12384;DHT22;6256;63.808;20.336;2022-12-29T18:04:13;-0.50;99.90
12384;DHT22;6256;63.808;20.336;2022-12-29T18:06:40;-0.50;99.90
12384;DHT22;6256;63.808;20.336;2022-12-29T18:09:07;-0.50;99.90
12384;DHT22;6256;63.808;20.336;2022-12-29T18:11:37;-0.50;99.90
12384;DHT22;6256;63.808;20.336;2022-12-29T18:14:03;-0.50;99.90
12384;DHT22;6256;63.808;20.336;2022-12-29T18:16:29;-0.50;99.90
12384;DHT22;6256;63.808;20.336;2022-12-29T18:18:55;-0.50;99.90
12384;DHT22;6256;63.808;20.336;2022-12-29T18:21:22;-0.50;99.90
12384;DHT22;6256;63.808;20.336;2022-12-29T18:23:49;-0.50;99.90
12384;DHT22;6256;63.808;20.336;2022-12-29T18:26:23;-0.50;99.90
12384;DHT22;6256;63.808;20.336;2022-12-29T18:28:50;-0.50;99.90
12384;DHT22;6256;63.808;20.336;2022-12-29T18:31:20;-0.50;99.90
12384;DHT22;6256;63.808;20.336;2022-12-29T18:33:46;-0.50;99.90
12384;DHT22;6256;63.808;20.336;2022-12-29T18:36:13;-0.50;99.90
12384;DHT22;6256;63.808;20.336;2022-12-29T18:38:39;-0.50;99.90